createdAt,value
2023-01-21T00:02:07.289Z,37.13
2023-01-21T00:04:37.956Z,39.80
2023-01-21T00:07:06.060Z,39.13
2023-01-21T00:09:34.334Z,36.20
2023-01-21T00:12:03.701Z,35.50
2023-01-21T00:14:31.608Z,40.00
2023-01-21T00:16:59.934Z,38.87
2023-01-21T00:19:28.939Z,36.93
2023-01-21T00:21:57.012Z,38.03
2023-01-21T00:24:24.865Z,39.83
2023-01-21T00:26:54.162Z,37.33
2023-01-21T00:29:23.611Z,32.93
2023-01-21T00:31:54.370Z,34.73
2023-01-21T00:34:22.897Z,30.93
2023-01-21T00:36:51.323Z,32.93
2023-01-21T00:39:19.152Z,32.50
2023-01-21T00:41:46.932Z,32.83
2023-01-21T00:44:16.262Z,35.90
2023-01-21T00:46:45.639Z,29.97
2023-01-21T00:49:13.505Z,32.17
2023-01-21T00:51:41.316Z,27.57
2023-01-21T00:54:09.176Z,29.43
2023-01-21T00:56:37.284Z,32.07
2023-01-21T00:59:05.201Z,30.33
2023-01-21T01:01:37.226Z,31.73
2023-01-21T01:04:06.909Z,32.73
2023-01-21T01:06:35.093Z,26.47
2023-01-21T01:09:03.009Z,32.07
2023-01-21T01:11:31.518Z,28.73
2023-01-21T01:14:00.155Z,34.80
2023-01-21T01:16:28.080Z,29.80
2023-01-21T01:18:57.064Z,28.70
2023-01-21T01:21:26.342Z,29.07
2023-01-21T01:23:54.753Z,27.43
2023-01-21T01:26:23.675Z,28.00
2023-01-21T01:28:51.900Z,28.07
2023-01-21T01:31:21.930Z,28.77
2023-01-21T01:33:50.820Z,29.13
2023-01-21T01:36:21.051Z,29.00
2023-01-21T01:38:54.798Z,29.10
2023-01-21T01:41:27.745Z,26.97
2023-01-21T01:43:59.086Z,27.43
2023-01-21T01:46:28.845Z,28.20
2023-01-21T01:49:02.447Z,29.23
2023-01-21T01:51:38.072Z,27.87
2023-01-21T01:54:08.883Z,30.70
2023-01-21T01:56:39.618Z,34.57
2023-01-21T01:59:07.985Z,28.73
2023-01-21T02:01:35.890Z,30.37
2023-01-21T02:04:09.900Z,28.77
2023-01-21T02:06:39.330Z,25.67
2023-01-21T02:09:09.188Z,30.00
2023-01-21T02:11:38.075Z,27.87
2023-01-21T02:14:06.823Z,27.53
2023-01-21T02:17:11.517Z,27.47
2023-01-21T02:20:02.706Z,29.80
2023-01-21T02:22:35.912Z,24.57
2023-01-21T02:25:31.268Z,27.60
2023-01-21T02:28:23.092Z,26.70
2023-01-21T02:31:10.098Z,28.53
2023-01-21T02:33:53.973Z,27.30
2023-01-21T02:36:43.369Z,29.43
2023-01-21T02:39:20.924Z,27.13
2023-01-21T02:42:03.749Z,29.13
2023-01-21T02:44:39.381Z,26.40
2023-01-21T02:47:22.799Z,27.60
2023-01-21T02:49:59.551Z,28.13
2023-01-21T02:52:28.005Z,26.20
2023-01-21T02:54:57.638Z,29.70
2023-01-21T02:57:38.707Z,29.00
2023-01-21T03:00:11.192Z,27.20
2023-01-21T03:03:21.022Z,30.20
2023-01-21T03:06:16.197Z,33.20
2023-01-21T03:08:51.459Z,27.17
2023-01-21T03:11:23.294Z,28.13
2023-01-21T03:14:12.991Z,27.13
2023-01-21T03:16:58.947Z,26.97
2023-01-21T03:19:33.916Z,31.93
2023-01-21T03:22:05.992Z,28.77
2023-01-21T03:24:35.297Z,26.17
2023-01-21T03:27:04.977Z,26.30
2023-01-21T03:29:34.093Z,26.40
2023-01-21T03:32:05.170Z,30.57
2023-01-21T03:34:36.897Z,30.10
2023-01-21T03:37:09.501Z,24.67
2023-01-21T03:39:43.449Z,29.67
2023-01-21T03:42:12.148Z,27.87
2023-01-21T03:44:40.937Z,29.10
2023-01-21T03:47:17.968Z,27.60
2023-01-21T03:49:54.261Z,28.50
2023-01-21T03:52:25.830Z,29.07
2023-01-21T03:54:54.049Z,29.33
2023-01-21T03:57:21.994Z,29.30
2023-01-21T03:59:49.925Z,25.33
2023-01-21T04:02:20.851Z,26.60
2023-01-21T04:04:50.219Z,25.73
2023-01-21T04:07:18.635Z,26.73
2023-01-21T04:09:50.232Z,27.53
2023-01-21T04:12:18.722Z,25.93
2023-01-21T04:14:46.959Z,26.37
2023-01-21T04:17:14.814Z,27.53
2023-01-21T04:19:42.712Z,31.70
2023-01-21T04:22:10.587Z,26.43
2023-01-21T04:24:38.453Z,26.37
2023-01-21T04:27:07.607Z,27.57
2023-01-21T04:29:35.456Z,26.10
2023-01-21T04:32:04.043Z,29.50
2023-01-21T04:34:31.858Z,27.57
2023-01-21T04:36:59.733Z,29.10
2023-01-21T04:39:27.582Z,25.20
2023-01-21T04:41:55.388Z,24.10
2023-01-21T04:44:25.051Z,25.03
2023-01-21T04:46:53.061Z,28.70
2023-01-21T04:49:21.008Z,24.93
2023-01-21T04:51:51.585Z,25.30
2023-01-21T04:54:19.612Z,29.13
2023-01-21T04:56:48.024Z,26.70
2023-01-21T04:59:16.019Z,29.60
2023-01-21T05:01:45.438Z,30.13
2023-01-21T05:04:13.255Z,28.30
2023-01-21T05:06:41.158Z,26.30
2023-01-21T05:09:09.183Z,27.90
2023-01-21T05:11:37.034Z,30.53
2023-01-21T05:14:05.088Z,30.97
2023-01-21T05:16:32.946Z,28.97
2023-01-21T05:19:04.038Z,26.57
2023-01-21T05:21:31.851Z,27.93
2023-01-21T05:23:59.637Z,30.13
2023-01-21T05:26:27.481Z,24.90
2023-01-21T05:28:55.374Z,28.97
2023-01-21T05:31:25.145Z,26.73
2023-01-21T05:33:53.511Z,26.70
2023-01-21T05:36:23.363Z,32.20
2023-01-21T05:38:54.026Z,30.33
2023-01-21T05:41:22.346Z,32.50
2023-01-21T05:43:51.064Z,29.53
2023-01-21T05:46:19.118Z,30.40
2023-01-21T05:48:47.315Z,28.83
2023-01-21T05:51:15.183Z,30.93
2023-01-21T05:53:44.500Z,27.67
2023-01-21T05:56:12.341Z,33.93
2023-01-21T05:58:40.445Z,29.03
2023-01-21T06:01:08.337Z,27.13
2023-01-21T06:03:38.070Z,31.23
2023-01-21T06:06:06.424Z,27.60
2023-01-21T06:08:34.329Z,31.60
2023-01-21T06:11:03.494Z,33.40
2023-01-21T06:13:31.314Z,41.27
2023-01-21T06:15:59.189Z,36.37
2023-01-21T06:18:27.082Z,37.13
2023-01-21T06:20:54.916Z,38.53
2023-01-21T06:23:23.442Z,41.57
2023-01-21T06:25:51.800Z,51.40
2023-01-21T06:28:20.936Z,44.13
2023-01-21T06:30:51.557Z,45.70
2023-01-21T06:33:19.422Z,51.97
2023-01-21T06:35:50.070Z,55.10
2023-01-21T06:38:18.003Z,51.60
2023-01-21T06:40:45.799Z,54.47
2023-01-21T06:43:13.681Z,43.73
2023-01-21T06:45:42.854Z,52.17
2023-01-21T06:48:10.766Z,52.93
2023-01-21T06:50:38.693Z,55.43
2023-01-21T06:53:06.525Z,45.47
2023-01-21T06:55:34.387Z,50.47
2023-01-21T06:58:02.256Z,54.63
2023-01-21T07:00:30.136Z,50.93
2023-01-21T07:02:59.823Z,46.87
2023-01-21T07:05:28.511Z,51.80
2023-01-21T07:07:57.048Z,48.83
2023-01-21T07:10:25.132Z,51.33
2023-01-21T07:12:53.477Z,51.50
2023-01-21T07:15:22.106Z,61.03
2023-01-21T07:17:49.965Z,54.97
2023-01-21T07:20:19.502Z,62.67
2023-01-21T07:22:48.060Z,44.00
2023-01-21T07:25:16.237Z,50.67
2023-01-21T07:27:44.453Z,55.13
2023-01-21T07:30:17.785Z,43.50
2023-01-21T07:32:48.332Z,51.70
2023-01-21T07:35:17.192Z,46.53
2023-01-21T07:37:46.799Z,80.97
2023-01-21T07:40:14.953Z,54.93
2023-01-21T07:42:42.844Z,64.93
2023-01-21T07:45:11.471Z,56.73
2023-01-21T07:47:39.396Z,52.30
2023-01-21T07:50:08.757Z,70.87
2023-01-21T07:52:36.781Z,46.77
2023-01-21T07:55:08.180Z,48.00
2023-01-21T07:57:36.562Z,58.97
2023-01-21T08:00:05.636Z,63.27
2023-01-21T08:02:33.525Z,49.23
2023-01-21T08:05:01.534Z,59.67
2023-01-21T08:07:30.113Z,45.80
2023-01-21T08:09:58.120Z,55.00
2023-01-21T08:12:27.490Z,53.40
2023-01-21T08:14:55.549Z,52.83
2023-01-21T08:17:24.377Z,50.00
2023-01-21T08:19:52.969Z,47.37
2023-01-21T08:22:22.410Z,45.07
2023-01-21T08:24:51.943Z,51.30
2023-01-21T08:27:19.842Z,53.67
2023-01-21T08:29:52.143Z,50.30
2023-01-21T08:32:21.413Z,53.10
2023-01-21T08:34:49.801Z,48.80
2023-01-21T08:37:17.722Z,51.30
2023-01-21T08:39:45.528Z,47.60
2023-01-21T08:42:13.365Z,50.43
2023-01-21T08:44:41.233Z,51.97
2023-01-21T08:47:10.383Z,43.53
2023-01-21T08:49:38.278Z,46.40
2023-01-21T08:52:06.447Z,41.90
2023-01-21T08:54:34.299Z,44.37
2023-01-21T08:57:02.135Z,43.13
2023-01-21T08:59:30.158Z,36.90
2023-01-21T09:01:58.294Z,41.33
2023-01-21T09:04:27.602Z,33.97
2023-01-21T09:06:55.486Z,35.40
2023-01-21T09:09:24.192Z,42.00
2023-01-21T09:11:53.379Z,40.30
2023-01-21T09:14:22.555Z,36.17
2023-01-21T09:16:50.993Z,40.23
2023-01-21T09:19:19.636Z,40.37
2023-01-21T09:21:51.964Z,36.60
2023-01-21T09:24:21.382Z,40.83
2023-01-21T09:26:50.108Z,37.00
2023-01-21T09:29:18.038Z,40.77
2023-01-21T09:31:45.971Z,35.80
2023-01-21T09:34:13.922Z,37.90
2023-01-21T09:36:41.896Z,36.27
2023-01-21T09:39:11.089Z,42.53
2023-01-21T09:41:40.822Z,39.80
2023-01-21T09:44:23.586Z,42.70
2023-01-21T09:46:57.017Z,38.07
2023-01-21T09:49:29.392Z,35.00
2023-01-21T09:52:07.820Z,37.47
2023-01-21T09:54:39.584Z,41.07
2023-01-21T09:57:49.867Z,37.37
2023-01-21T10:00:30.525Z,37.17
2023-01-21T10:03:04.442Z,34.60
2023-01-21T10:06:01.709Z,37.33
2023-01-21T10:08:40.237Z,42.30
2023-01-21T10:11:23.598Z,41.00
2023-01-21T10:14:07.949Z,45.20
2023-01-21T10:16:41.484Z,39.67
2023-01-21T10:19:15.444Z,43.23
2023-01-21T10:21:50.861Z,41.10
2023-01-21T10:24:25.395Z,41.37
2023-01-21T10:26:55.565Z,41.87
2023-01-21T10:29:26.770Z,38.13
2023-01-21T10:31:59.437Z,40.57
2023-01-21T10:34:31.638Z,40.40
2023-01-21T10:37:08.105Z,38.13
2023-01-21T10:39:44.453Z,41.50
2023-01-21T10:42:39.648Z,37.73
2023-01-21T10:45:19.014Z,37.90
2023-01-21T10:47:52.199Z,41.03
2023-01-21T10:50:31.559Z,40.03
2023-01-21T10:53:07.747Z,39.23
2023-01-21T10:55:45.375Z,43.57
2023-01-21T10:58:28.063Z,45.50
2023-01-21T11:00:59.513Z,44.90
2023-01-21T11:03:33.046Z,45.30
2023-01-21T11:06:04.281Z,48.10
2023-01-21T11:08:32.432Z,43.13
2023-01-21T11:11:01.388Z,40.97
2023-01-21T11:13:30.795Z,42.07
2023-01-21T11:15:59.980Z,46.20
2023-01-21T11:18:34.213Z,40.27
2023-01-21T11:21:04.072Z,41.93
2023-01-21T11:23:34.689Z,38.80
2023-01-21T11:26:05.170Z,45.63
2023-01-21T11:28:35.326Z,42.60
2023-01-21T11:31:11.536Z,42.17
2023-01-21T11:33:40.587Z,43.87
2023-01-21T11:36:14.442Z,44.70
2023-01-21T11:38:43.133Z,39.90
2023-01-21T11:41:22.219Z,41.63
2023-01-21T11:43:53.131Z,42.50
2023-01-21T11:46:31.229Z,40.70
2023-01-21T11:49:22.980Z,38.53
2023-01-21T11:51:51.975Z,35.67
2023-01-21T11:54:23.097Z,39.87
2023-01-21T11:56:56.760Z,41.13
2023-01-21T11:59:32.888Z,37.70
2023-01-21T12:02:08.860Z,33.67
2023-01-21T12:04:37.372Z,36.43
2023-01-21T12:07:06.501Z,34.90
2023-01-21T12:09:34.474Z,35.17
2023-01-21T12:12:14.798Z,36.80
2023-01-21T12:14:52.081Z,37.47
2023-01-21T12:17:31.501Z,33.97
2023-01-21T12:20:14.069Z,34.67
2023-01-21T12:23:03.200Z,31.53
2023-01-21T12:25:41.436Z,31.23
2023-01-21T12:28:23.471Z,35.87
2023-01-21T12:31:04.657Z,34.93
2023-01-21T12:33:47.848Z,35.47
2023-01-21T12:36:22.988Z,31.97
2023-01-21T12:39:05.377Z,34.63
2023-01-21T12:41:35.522Z,37.37
2023-01-21T12:44:21.917Z,33.40
2023-01-21T12:46:56.666Z,38.77
